Time;durP1;ratioP1;P1;durP2;ratioP2;P2;SDS_P1;SDS_P2;PMS_P1;PMS_P2;Temp;Humidity;BMP_temperature;BMP_pressure;BME280_temperature;BME280_humidity;BME280_pressure;Samples;Min_cycle;Max_cycle;Signal;HPM_P1;HPM_P2
2021/06/11 00:00:30;;;;;;;7.40;6.72;;;;;;;16.43;81.15;101797.72;1056966;28;20052;-79
2021/06/11 00:01:04;;;;;;;7.63;6.75;;;;;;;16.40;81.62;101801.22;1056848;28;20515;-80
2021/06/11 00:01:35;;;;;;;8.35;6.88;;;;;;;16.34;81.55;101801.16;1057245;28;20058;-80
2021/06/11 00:02:07;;;;;;;9.35;6.85;;;;;;;16.40;81.02;101800.34;1057076;28;20142;-80
2021/06/11 00:02:39;;;;;;;8.45;7.15;;;;;;;16.41;81.15;101802.09;1052584;28;20063;-79
2021/06/11 00:03:11;;;;;;;8.77;7.47;;;;;;;16.41;81.43;101796.84;1052860;28;20051;-79
2021/06/11 00:03:42;;;;;;;8.20;7.35;;;;;;;16.42;80.98;101793.38;1053323;28;20052;-80
2021/06/11 00:04:14;;;;;;;12.40;6.97;;;;;;;16.38;81.27;101800.31;1057039;28;20044;-80
2021/06/11 00:04:45;;;;;;;7.00;6.40;;;;;;;16.40;81.37;101798.59;1057027;28;20092;-80
2021/06/11 00:05:17;;;;;;;8.48;7.43;;;;;;;16.29;81.94;101799.41;1052788;28;20059;-80
2021/06/11 00:05:49;;;;;;;7.07;6.40;;;;;;;16.27;81.85;101801.97;1053169;28;20098;-79
2021/06/11 00:06:20;;;;;;;9.57;6.95;;;;;;;16.17;82.29;101798.44;1056987;28;20059;-80
2021/06/11 00:06:52;;;;;;;7.43;6.57;;;;;;;16.18;82.48;101799.31;1057138;28;20100;-79
2021/06/11 00:07:23;;;;;;;8.63;6.95;;;;;;;16.14;82.54;101798.41;1057364;28;20051;-79
2021/06/11 00:07:54;;;;;;;7.25;6.55;;;;;;;16.08;82.89;101800.97;1057244;28;20059;-79
2021/06/11 00:08:29;;;;;;;7.35;6.70;;;;;;;16.08;82.53;101798.38;1057364;28;20050;-80
2021/06/11 00:09:00;;;;;;;6.93;5.85;;;;;;;16.17;81.77;101803.66;1057464;28;20044;-79
2021/06/11 00:09:31;;;;;;;5.82;5.28;;;;;;;16.15;82.15;101799.28;1056902;28;20052;-79
2021/06/11 00:10:06;;;;;;;6.57;5.20;;;;;;;16.21;81.63;101804.53;1056936;28;20047;-79
2021/06/11 00:10:38;;;;;;;6.72;6.00;;;;;;;16.24;81.53;101798.50;1052883;28;20051;-79
2021/06/11 00:11:10;;;;;;;6.13;4.75;;;;;;;16.18;81.59;101799.31;1048728;28;20067;-79
2021/06/11 00:11:42;;;;;;;6.78;5.30;;;;;;;16.23;80.78;101800.22;1044576;28;20053;-79
2021/06/11 00:12:14;;;;;;;6.35;5.47;;;;;;;16.28;81.10;101795.00;1044937;28;20052;-79
2021/06/11 00:12:45;;;;;;;6.07;5.47;;;;;;;16.19;81.85;101792.34;1050692;28;20484;-80
2021/06/11 00:13:17;;;;;;;8.00;5.85;;;;;;;16.15;81.61;101796.66;1049113;28;20049;-79
2021/06/11 00:13:48;;;;;;;5.68;5.13;;;;;;;16.09;81.99;101800.09;1048551;28;20053;-78
2021/06/11 00:14:20;;;;;;;8.88;5.65;;;;;;;16.14;81.57;101801.03;1049572;28;20526;-79
2021/06/11 00:14:51;;;;;;;5.10;4.60;;;;;;;16.19;81.56;101794.97;1048494;28;20041;-79
2021/06/11 00:15:24;;;;;;;6.80;5.55;;;;;;;16.17;81.17;101797.56;1048932;28;20045;-79
2021/06/11 00:15:56;;;;;;;5.57;4.85;;;;;;;16.22;81.16;101795.84;1048926;28;20127;-80
2021/06/11 00:16:27;;;;;;;5.68;5.03;;;;;;;16.22;80.84;101801.06;1053447;28;20098;-79
2021/06/11 00:16:59;;;;;;;6.22;5.38;;;;;;;16.22;80.71;101801.06;1056929;28;20059;-79
2021/06/11 00:17:31;;;;;;;6.20;5.45;;;;;;;16.21;80.80;101790.63;1056873;28;20059;-79
2021/06/11 00:18:03;;;;;;;6.18;5.10;;;;;;;16.21;81.03;101796.72;1057166;28;20047;-79
2021/06/11 00:18:35;;;;;;;6.28;4.82;;;;;;;16.21;80.93;101798.44;1057010;28;20043;-79
2021/06/11 00:19:07;;;;;;;5.75;5.25;;;;;;;16.19;80.74;101797.56;1056816;28;20050;-79
2021/06/11 00:19:38;;;;;;;5.10;4.57;;;;;;;16.15;80.93;101796.66;1056921;28;20048;-79
2021/06/11 00:20:10;;;;;;;6.25;5.20;;;;;;;16.14;81.26;101801.03;1056926;28;20044;-79
2021/06/11 00:20:42;;;;;;;5.82;5.28;;;;;;;16.15;81.31;101794.94;1057004;28;20044;-79
2021/06/11 00:21:13;;;;;;;5.47;4.97;;;;;;;16.05;81.92;101789.63;1048640;28;20048;-79
2021/06/11 00:21:45;;;;;;;6.57;5.45;;;;;;;16.08;81.74;101797.50;1044512;28;20118;-79
2021/06/11 00:22:16;;;;;;;5.82;5.20;;;;;;;16.12;81.45;101800.16;1044786;28;20049;-79
2021/06/11 00:22:49;;;;;;;5.82;5.28;;;;;;;16.15;81.04;101800.16;1048534;28;20158;-79
2021/06/11 00:23:22;;;;;;;6.88;6.25;;;;;;;16.16;80.81;101793.19;1048592;28;20056;-80
2021/06/11 00:23:54;;;;;;;7.53;6.07;;;;;;;16.12;81.03;101794.06;1048567;28;20049;-79
2021/06/11 00:24:26;;;;;;;8.50;6.70;;;;;;;16.16;80.74;101798.41;1052447;28;20051;-80
2021/06/11 00:24:58;;;;;;;6.10;5.50;;;;;;;16.07;80.94;101790.53;1049104;28;20053;-80
2021/06/11 00:25:29;;;;;;;7.55;6.20;;;;;;;16.08;81.04;101797.50;1053245;28;20109;-79
2021/06/11 00:26:01;;;;;;;6.57;5.97;;;;;;;16.08;81.22;101793.16;1052440;28;20491;-79
2021/06/11 00:26:35;;;;;;;7.78;7.00;;;;;;;16.07;81.83;101799.22;1053799;28;20055;-79
2021/06/11 00:27:07;;;;;;;7.57;6.85;;;;;;;16.05;81.67;101798.38;1056995;28;20051;-79
2021/06/11 00:27:39;;;;;;;6.45;5.43;;;;;;;16.08;81.04;101792.28;1052750;28;20423;-79
2021/06/11 00:28:10;;;;;;;8.38;6.22;;;;;;;16.09;81.22;101794.00;1052772;28;20044;-80
2021/06/11 00:28:42;;;;;;;6.43;5.60;;;;;;;16.08;81.07;101795.75;1052732;28;20424;-79
2021/06/11 00:29:14;;;;;;;6.03;5.32;;;;;;;16.09;81.04;101797.50;1048929;28;20083;-79
2021/06/11 00:29:45;;;;;;;6.88;5.88;;;;;;;16.05;81.26;101800.97;1048580;28;20052;-79
2021/06/11 00:30:19;;;;;;;6.80;6.10;;;;;;;16.02;81.65;101805.28;1048893;28;20048;-79
2021/06/11 00:30:50;;;;;;;6.25;5.53;;;;;;;16.04;81.30;101799.19;1053373;28;20354;-79
2021/06/11 00:31:22;;;;;;;8.23;6.13;;;;;;;16.04;81.35;101807.03;1056942;28;20054;-79
2021/06/11 00:31:54;;;;;;;6.00;5.40;;;;;;;16.04;81.39;101800.94;1057342;28;20080;-79
2021/06/11 00:32:26;;;;;;;8.10;6.25;;;;;;;15.98;82.30;101806.09;1056867;28;20498;-79
2021/06/11 00:32:58;;;;;;;6.78;6.15;;;;;;;15.92;82.11;101808.66;1056899;28;20055;-79
2021/06/11 00:33:35;;;;;;;7.30;6.43;;;;;;;16.00;81.81;101800.06;1052854;28;20499;-79
2021/06/11 00:34:06;;;;;;;8.20;6.00;;;;;;;15.98;81.94;101806.09;1052628;28;20055;-79
2021/06/11 00:34:38;;;;;;;6.10;5.05;;;;;;;15.91;82.31;101802.56;1053999;28;20052;-79
2021/06/11 00:35:10;;;;;;;7.18;6.43;;;;;;;15.90;82.00;101806.94;1056811;28;20172;-79
2021/06/11 00:35:42;;;;;;;8.18;6.15;;;;;;;15.93;81.87;101794.75;1052565;28;20476;-79
2021/06/11 00:36:14;;;;;;;6.32;5.72;;;;;;;15.91;81.83;101802.56;1049140;28;20412;-79
2021/06/11 00:36:45;;;;;;;6.47;5.88;;;;;;;15.91;82.09;101802.56;1052692;28;20059;-79
2021/06/11 00:37:17;;;;;;;6.93;6.20;;;;;;;15.92;81.91;101806.06;1053046;28;20510;-79
2021/06/11 00:37:48;;;;;;;6.25;5.65;;;;;;;15.90;81.87;101799.09;1056897;28;20057;-80
2021/06/11 00:38:21;;;;;;;6.15;5.55;;;;;;;15.87;82.24;101803.41;1056891;28;20117;-79
2021/06/11 00:38:52;;;;;;;6.00;5.40;;;;;;;15.88;81.93;101805.16;1052751;28;20150;-79
2021/06/11 00:39:23;;;;;;;6.85;6.15;;;;;;;15.96;81.45;101807.84;1048554;28;20059;-80
2021/06/11 00:39:55;;;;;;;11.32;6.60;;;;;;;15.96;81.52;101798.28;1049012;28;20064;-79
2021/06/11 00:40:27;;;;;;;8.55;6.80;;;;;;;15.93;81.60;101803.44;1053028;28;20504;-79
2021/06/11 00:40:58;;;;;;;6.20;5.57;;;;;;;15.89;81.95;101804.31;1056809;28;20043;-79
2021/06/11 00:41:30;;;;;;;6.10;5.53;;;;;;;15.88;82.06;101805.16;1056670;28;20051;-79
2021/06/11 00:42:03;;;;;;;6.28;5.68;;;;;;;15.92;81.72;101806.06;1056798;28;20407;-79
2021/06/11 00:42:36;;;;;;;6.82;5.38;;;;;;;15.89;81.58;101802.56;1056640;28;20052;-79
2021/06/11 00:43:12;;;;;;;6.30;5.22;;;;;;;15.76;82.43;101803.31;1056870;28;20052;-80
2021/06/11 00:43:43;;;;;;;7.13;6.35;;;;;;;15.74;82.58;101799.81;1056905;28;20055;-80
2021/06/11 00:44:14;;;;;;;8.18;5.55;;;;;;;15.76;82.37;101805.03;1056960;28;20040;-80
2021/06/11 00:44:46;;;;;;;5.82;5.32;;;;;;;15.77;82.02;101810.31;1056790;28;20043;-79
2021/06/11 00:45:18;;;;;;;9.02;5.30;;;;;;;15.82;82.11;101803.34;1053023;28;20059;-78
2021/06/11 00:45:50;;;;;;;6.03;5.53;;;;;;;15.85;81.93;101803.41;1056907;28;20062;-79
2021/06/11 00:46:21;;;;;;;7.72;6.40;;;;;;;15.89;81.86;101812.16;1052763;28;20055;-80
2021/06/11 00:46:53;;;;;;;8.32;5.80;;;;;;;15.87;81.76;101804.28;1052582;28;20044;-80
2021/06/11 00:47:24;;;;;;;6.18;5.32;;;;;;;15.84;81.98;101809.50;1052551;28;20085;-79
2021/06/11 00:47:56;;;;;;;5.93;5.32;;;;;;;15.81;82.20;101804.22;1052533;28;20071;-79
2021/06/11 00:48:27;;;;;;;6.28;5.68;;;;;;;15.76;82.08;101805.03;1054222;28;20048;-79
2021/06/11 00:48:59;;;;;;;7.30;5.88;;;;;;;15.73;82.29;101805.03;1057251;28;20043;-79
2021/06/11 00:49:31;;;;;;;5.47;4.97;;;;;;;15.83;81.51;101812.09;1056861;28;20384;-78
2021/06/11 00:50:07;;;;;;;6.03;5.45;;;;;;;15.88;81.12;101803.44;1056707;28;20051;-79
2021/06/11 00:50:39;;;;;;;5.63;4.60;;;;;;;15.90;81.22;101809.53;1052752;28;20044;-79
2021/06/11 00:51:10;;;;;;;6.35;5.43;;;;;;;15.90;80.95;101806.06;1052634;28;20126;-79
2021/06/11 00:51:42;;;;;;;8.00;6.57;;;;;;;15.84;81.68;101806.88;1053723;28;20504;-79
2021/06/11 00:52:15;;;;;;;5.63;5.13;;;;;;;15.86;81.61;101806.88;1056616;28;20052;-79
2021/06/11 00:52:47;;;;;;;6.68;5.53;;;;;;;15.85;81.82;101805.13;1056895;28;20079;-79
2021/06/11 00:53:19;;;;;;;7.30;5.47;;;;;;;15.74;82.49;101805.03;1056682;28;20043;-79
2021/06/11 00:53:50;;;;;;;5.82;5.30;;;;;;;15.76;81.74;101800.69;1056858;28;20138;-79
2021/06/11 00:54:23;;;;;;;7.95;5.57;;;;;;;15.77;82.05;101805.09;1056588;28;20039;-79
2021/06/11 00:54:54;;;;;;;6.03;5.40;;;;;;;15.81;81.50;101803.34;1057052;28;20059;-79
2021/06/11 00:55:27;;;;;;;5.95;5.43;;;;;;;15.80;81.93;101796.41;1056746;28;20062;-78
2021/06/11 00:55:58;;;;;;;6.07;5.47;;;;;;;15.70;82.33;101799.78;1056595;28;20059;-79
2021/06/11 00:56:30;;;;;;;8.25;5.80;;;;;;;15.73;81.82;101795.47;1056803;28;20047;-79
2021/06/11 00:57:01;;;;;;;7.28;5.75;;;;;;;15.79;81.63;101802.47;1056835;28;20052;-79
2021/06/11 00:57:33;;;;;;;7.82;5.53;;;;;;;15.71;81.69;101798.91;1057002;28;20056;-79
2021/06/11 00:58:05;;;;;;;7.32;5.60;;;;;;;15.65;81.82;101802.34;1056950;28;20047;-79
2021/06/11 00:58:36;;;;;;;7.13;5.32;;;;;;;15.58;82.37;101803.97;1057276;28;20460;-79
2021/06/11 00:59:09;;;;;;;6.97;4.90;;;;;;;15.57;82.48;101797.03;1056719;28;20044;-79
2021/06/11 00:59:41;;;;;;;7.40;6.00;;;;;;;15.59;82.48;101803.13;1056753;28;20051;-79
2021/06/11 01:00:13;;;;;;;8.10;5.35;;;;;;;15.59;82.40;101791.81;1052460;28;20048;-79
2021/06/11 01:00:47;;;;;;;5.88;5.25;;;;;;;15.57;82.55;101797.03;1052570;28;20052;-80
2021/06/11 01:01:18;;;;;;;7.00;5.35;;;;;;;15.53;82.92;101797.84;1053367;28;20059;-79
2021/06/11 01:01:50;;;;;;;6.15;5.10;;;;;;;15.56;82.77;101797.03;1056895;28;20106;-79
2021/06/11 01:02:22;;;;;;;5.72;5.22;;;;;;;15.55;82.58;101796.16;1056751;28;20055;-80
2021/06/11 01:02:54;;;;;;;7.30;5.47;;;;;;;15.52;83.03;101803.06;1056821;28;20419;-79
2021/06/11 01:03:25;;;;;;;6.82;5.43;;;;;;;15.49;82.96;101801.31;1048330;28;20048;-79
2021/06/11 01:03:57;;;;;;;6.03;5.38;;;;;;;15.50;82.65;101794.34;1044366;28;20053;-79
2021/06/11 01:04:28;;;;;;;5.72;5.20;;;;;;;15.53;82.56;101802.19;1040516;28;20045;-79
2021/06/11 01:05:00;;;;;;;6.78;4.90;;;;;;;15.51;82.79;101796.97;1048150;28;20048;-79
2021/06/11 01:05:31;;;;;;;5.53;4.57;;;;;;;15.51;82.50;101796.97;1048891;28;20048;-79
2021/06/11 01:06:03;;;;;;;6.38;5.38;;;;;;;15.43;82.96;101796.03;1052505;28;20055;-79
2021/06/11 01:06:39;;;;;;;8.38;5.68;;;;;;;15.49;82.94;101792.59;1056368;28;20048;-79
2021/06/11 01:07:11;;;;;;;9.52;5.53;;;;;;;15.53;82.04;101797.84;1056699;28;20062;-79
2021/06/11 01:07:46;;;;;;;6.35;5.70;;;;;;;15.55;82.06;101790.94;1052508;28;20052;-79
2021/06/11 01:08:18;;;;;;;6.32;5.25;;;;;;;15.54;82.30;101789.19;1048528;28;20048;-80
2021/06/11 01:08:50;;;;;;;6.63;6.03;;;;;;;15.53;82.64;101792.63;1049483;28;20048;-80
2021/06/11 01:09:25;;;;;;;5.65;5.13;;;;;;;15.58;82.06;101788.34;1049628;28;20421;-79
2021/06/11 01:09:58;;;;;;;7.53;6.40;;;;;;;15.58;82.27;101795.28;1052540;28;20044;-79
2021/06/11 01:10:31;;;;;;;9.40;7.07;;;;;;;15.54;82.77;101788.28;1052656;28;20040;-79
2021/06/11 01:11:02;;;;;;;8.05;6.07;;;;;;;15.51;82.64;101796.09;1053119;28;20052;-79
2021/06/11 01:11:37;;;;;;;6.30;5.70;;;;;;;15.50;82.37;101792.63;1056819;28;20047;-79
2021/06/11 01:12:10;;;;;;;5.55;5.00;;;;;;;15.51;82.14;101794.34;1052456;28;20062;-78
2021/06/11 01:12:44;;;;;;;7.30;5.88;;;;;;;15.52;81.66;101790.88;1050353;28;20044;-79
2021/06/11 01:13:18;;;;;;;8.73;5.72;;;;;;;15.48;82.44;101785.63;1052591;28;20456;-79
2021/06/11 01:13:50;;;;;;;8.48;5.28;;;;;;;15.47;82.25;101789.97;1049747;28;20048;-79
2021/06/11 01:14:22;;;;;;;7.80;5.32;;;;;;;15.36;82.73;101789.84;1052584;28;20407;-79
2021/06/11 01:14:54;;;;;;;6.72;5.93;;;;;;;15.38;82.80;101793.38;1053577;28;20400;-80
2021/06/11 01:15:26;;;;;;;5.75;5.25;;;;;;;15.31;83.21;101794.13;1052575;28;20044;-79
2021/06/11 01:15:57;;;;;;;5.50;5.03;;;;;;;15.23;83.70;101793.19;1048823;28;20052;-79
2021/06/11 01:16:29;;;;;;;5.80;5.25;;;;;;;15.18;84.17;101788.78;1048255;28;20052;-79
2021/06/11 01:17:01;;;;;;;5.78;5.28;;;;;;;15.17;83.86;101798.34;1048826;28;20049;-80
2021/06/11 01:17:35;;;;;;;6.15;5.22;;;;;;;15.20;83.89;101790.56;1053175;28;20052;-80
2021/06/11 01:18:06;;;;;;;6.22;5.65;;;;;;;15.24;83.61;101789.72;1056432;28;20060;-79
2021/06/11 01:18:38;;;;;;;6.20;5.60;;;;;;;15.19;83.93;101796.63;1056994;28;20395;-80
2021/06/11 01:19:12;;;;;;;5.95;5.38;;;;;;;15.25;83.57;101790.59;1056882;27;20043;-79
2021/06/11 01:19:48;;;;;;;6.07;5.18;;;;;;;15.27;83.47;101788.91;1056671;28;20055;-79
2021/06/11 01:20:21;;;;;;;7.90;5.82;;;;;;;15.33;83.24;101796.78;1052706;28;20051;-79
2021/06/11 01:20:53;;;;;;;7.65;6.15;;;;;;;15.32;83.42;101793.31;1048417;28;20044;-79
2021/06/11 01:21:28;;;;;;;6.22;5.40;;;;;;;15.31;83.28;101795.88;1049528;28;20045;-79
2021/06/11 01:22:10;;;;;;;7.15;5.90;;;;;;;15.29;82.97;101790.66;1049631;28;20492;-79
2021/06/11 01:23:07;;;;;;;5.75;4.93;;;;;;;15.32;82.97;101795.03;1049804;28;20044;-79
2021/06/11 01:24:06;;;;;;;7.25;6.03;;;;;;;15.31;83.07;101795.88;1049440;28;20048;-80
2021/06/11 01:24:58;;;;;;;6.05;5.43;;;;;;;15.29;83.24;101790.66;1056000;28;20048;-79
2021/06/11 01:26:02;;;;;;;7.55;6.03;;;;;;;15.29;82.70;101790.66;1055221;28;20058;-79
2021/06/11 01:26:43;;;;;;;6.03;5.47;;;;;;;15.32;82.66;101795.03;1056687;28;20044;-79
2021/06/11 01:27:15;;;;;;;7.90;5.47;;;;;;;15.31;82.73;101791.53;1054530;28;20044;-79
2021/06/11 01:27:47;;;;;;;6.90;5.43;;;;;;;15.29;82.97;101793.25;1056553;28;20549;-79
2021/06/11 01:28:20;;;;;;;6.05;5.45;;;;;;;15.29;82.67;101797.59;1052178;28;20062;-79
2021/06/11 01:28:55;;;;;;;7.45;6.45;;;;;;;15.29;82.90;101795.00;1052941;28;20048;-79
2021/06/11 01:29:29;;;;;;;6.72;6.13;;;;;;;15.24;83.39;101791.47;1056672;28;20048;-79
2021/06/11 01:30:15;;;;;;;8.15;6.28;;;;;;;15.25;82.94;101793.19;1056621;28;20063;-79
2021/06/11 01:30:48;;;;;;;5.72;5.22;;;;;;;15.22;83.12;101791.44;1052548;28;20128;-79
2021/06/11 01:31:21;;;;;;;6.15;5.55;;;;;;;15.21;82.91;101788.84;1048407;28;20048;-78
2021/06/11 01:32:03;;;;;;;5.10;4.60;;;;;;;15.22;82.73;101791.44;1051105;28;20051;-79
2021/06/11 01:32:36;;;;;;;5.53;5.03;;;;;;;15.17;83.54;101795.75;1053999;28;20044;-79
2021/06/11 01:33:10;;;;;;;5.47;5.00;;;;;;;15.17;83.27;101789.66;1054823;28;20419;-79
2021/06/11 01:33:43;;;;;;;5.72;5.20;;;;;;;15.16;83.29;101788.78;1056627;28;20674;-79
2021/06/11 01:34:19;;;;;;;6.75;5.43;;;;;;;15.11;83.44;101798.28;1056741;28;20059;-79
2021/06/11 01:34:52;;;;;;;6.40;5.72;;;;;;;15.14;83.04;101797.41;1052637;28;20059;-79
2021/06/11 01:35:31;;;;;;;4.90;4.50;;;;;;;15.19;82.67;101799.22;1052542;28;20048;-79
2021/06/11 01:36:09;;;;;;;5.25;4.75;;;;;;;15.24;81.98;101797.53;1054560;28;20059;-79
2021/06/11 01:36:45;;;;;;;6.22;5.45;;;;;;;15.27;82.15;101792.38;1056820;28;20051;-78
2021/06/11 01:37:20;;;;;;;5.28;4.78;;;;;;;15.22;82.91;101795.78;1056946;28;20052;-79
2021/06/11 01:38:01;;;;;;;5.95;5.45;;;;;;;15.17;83.15;101793.13;1056682;28;20055;-79
2021/06/11 01:38:41;;;;;;;5.63;5.00;;;;;;;15.20;82.13;101787.97;1052575;28;20062;-79
2021/06/11 01:39:15;;;;;;;5.55;5.05;;;;;;;15.18;82.58;101791.41;1052609;28;20400;-79
2021/06/11 01:39:52;;;;;;;9.02;5.88;;;;;;;15.20;82.11;101790.56;1055817;28;20407;-79
2021/06/11 01:40:23;;;;;;;4.93;4.50;;;;;;;15.17;82.50;101792.25;1056706;28;20054;-79
2021/06/11 01:40:55;;;;;;;5.22;4.70;;;;;;;15.16;82.33;101794.00;1056774;28;20047;-79
2021/06/11 01:41:28;;;;;;;6.22;5.30;;;;;;;15.16;82.66;101794.00;1056637;28;20047;-80
2021/06/11 01:42:01;;;;;;;5.38;4.95;;;;;;;15.14;82.69;101795.69;1052382;28;20488;-79
2021/06/11 01:42:35;;;;;;;5.63;5.00;;;;;;;15.17;82.23;101795.75;1052241;28;20055;-79
2021/06/11 01:43:07;;;;;;;5.75;5.25;;;;;;;15.10;82.76;101800.00;1049445;28;20049;-79
2021/06/11 01:43:40;;;;;;;5.97;5.38;;;;;;;15.12;82.66;101792.19;1049375;28;20059;-79
2021/06/11 01:44:13;;;;;;;8.88;6.22;;;;;;;15.15;82.47;101800.06;1052495;28;20052;-79
2021/06/11 01:44:45;;;;;;;6.10;5.50;;;;;;;15.14;82.65;101794.81;1049080;28;20048;-79
2021/06/11 01:45:18;;;;;;;7.07;6.40;;;;;;;15.05;83.21;101793.88;1052524;28;20048;-79
2021/06/11 01:45:49;;;;;;;6.75;5.75;;;;;;;14.96;83.32;101798.94;1048377;28;20052;-79
2021/06/11 01:46:24;;;;;;;7.85;5.85;;;;;;;14.91;83.70;101803.22;1048880;28;20053;-79
2021/06/11 01:46:59;;;;;;;7.75;5.53;;;;;;;14.82;84.36;101800.53;1048455;28;20354;-79
2021/06/11 01:47:31;;;;;;;6.22;5.10;;;;;;;14.73;84.69;101800.41;1045543;28;20049;-79
2021/06/11 01:48:03;;;;;;;6.05;5.45;;;;;;;14.75;84.34;101803.91;1045613;28;20064;-79
2021/06/11 01:48:35;;;;;;;5.82;5.10;;;;;;;14.75;84.25;101796.97;1049246;28;20516;-79
2021/06/11 01:49:07;;;;;;;5.90;5.15;;;;;;;14.82;83.81;101800.53;1053367;28;20048;-79
2021/06/11 01:49:42;;;;;;;6.43;5.60;;;;;;;14.72;84.42;101799.53;1056812;28;20055;-79
2021/06/11 01:50:21;;;;;;;6.47;5.88;;;;;;;14.73;84.79;101793.47;1056771;28;20075;-79
2021/06/11 01:50:53;;;;;;;6.22;5.22;;;;;;;14.77;84.00;101799.59;1056915;28;20055;-79
2021/06/11 01:51:26;;;;;;;5.78;5.28;;;;;;;14.80;83.81;101799.63;1056655;28;20063;-79
2021/06/11 01:52:00;;;;;;;5.85;5.00;;;;;;;14.84;83.60;101801.41;1056428;28;20055;-79
2021/06/11 01:52:32;;;;;;;6.80;5.38;;;;;;;14.80;83.87;101799.63;1056652;28;20575;-79
2021/06/11 01:53:06;;;;;;;5.40;4.93;;;;;;;14.83;83.52;101797.06;1056701;28;20044;-79
2021/06/11 01:53:41;;;;;;;6.13;5.53;;;;;;;14.84;83.35;101791.88;1056596;28;20055;-80
2021/06/11 01:54:14;;;;;;;5.35;4.65;;;;;;;14.82;82.96;101795.31;1056692;28;20172;-78
2021/06/11 01:54:46;;;;;;;5.03;4.63;;;;;;;14.88;83.23;101799.72;1056663;28;20040;-79
2021/06/11 01:55:18;;;;;;;4.82;4.35;;;;;;;14.87;82.89;101796.25;1056459;28;20060;-79
2021/06/11 01:55:51;;;;;;;6.10;5.50;;;;;;;14.88;83.47;101799.72;1056648;28;20050;-79
2021/06/11 01:56:23;;;;;;;5.53;5.03;;;;;;;14.84;83.21;101797.06;1056973;28;20055;-79
2021/06/11 01:56:56;;;;;;;8.23;5.95;;;;;;;14.82;83.67;101805.75;1056527;28;20048;-79
2021/06/11 01:57:28;;;;;;;8.70;6.10;;;;;;;14.78;84.06;101802.22;1056692;28;20404;-79
2021/06/11 01:58:01;;;;;;;7.13;5.90;;;;;;;14.78;84.11;101803.94;1056548;28;20059;-79
2021/06/11 01:58:35;;;;;;;6.68;5.60;;;;;;;14.78;83.90;101801.34;1053355;28;20047;-79
2021/06/11 01:59:07;;;;;;;5.95;5.38;;;;;;;14.74;83.66;101802.16;1052540;28;20044;-79
2021/06/11 01:59:40;;;;;;;6.40;5.88;;;;;;;14.79;83.43;101806.56;1052327;28;20063;-79
2021/06/11 02:00:13;;;;;;;6.97;5.55;;;;;;;14.86;83.24;101807.50;1049346;28;20057;-79
2021/06/11 02:00:45;;;;;;;5.57;5.07;;;;;;;14.84;83.25;101807.50;1052560;28;20044;-79
2021/06/11 02:01:18;;;;;;;6.97;5.75;;;;;;;14.82;83.25;101805.75;1052396;28;20048;-79
2021/06/11 02:01:51;;;;;;;6.10;5.50;;;;;;;14.76;83.79;101801.31;1053455;28;20432;-79
2021/06/11 02:02:24;;;;;;;6.55;5.95;;;;;;;14.74;83.98;101803.00;1056456;28;20487;-78
2021/06/11 02:02:57;;;;;;;7.22;6.10;;;;;;;14.73;83.93;101811.69;1052359;28;20048;-79
2021/06/11 02:03:29;;;;;;;7.50;6.22;;;;;;;14.72;83.64;101807.34;1052111;28;20052;-79
2021/06/11 02:04:02;;;;;;;6.72;5.60;;;;;;;14.70;84.21;101803.84;1053203;28;20504;-79
2021/06/11 02:04:35;;;;;;;6.03;5.53;;;;;;;14.67;84.12;101810.75;1056614;28;20062;-79
2021/06/11 02:05:08;;;;;;;7.30;6.60;;;;;;;14.71;83.47;101807.34;1056895;28;20047;-79
2021/06/11 02:05:40;;;;;;;8.52;7.18;;;;;;;14.66;83.90;101803.78;1056591;28;20039;-79
2021/06/11 02:06:15;;;;;;;6.40;5.80;;;;;;;14.57;84.27;101809.72;1056555;28;20052;-79
2021/06/11 02:06:49;;;;;;;6.97;6.28;;;;;;;14.55;84.22;101807.09;1056688;28;20059;-79
2021/06/11 02:07:20;;;;;;;7.22;5.95;;;;;;;14.58;84.34;101812.38;1056723;28;20047;-79
2021/06/11 02:07:53;;;;;;;6.60;5.90;;;;;;;14.62;84.02;101804.59;1056492;28;20051;-79
2021/06/11 02:08:25;;;;;;;8.50;6.45;;;;;;;14.61;84.48;101808.94;1052274;28;20119;-79
2021/06/11 02:08:57;;;;;;;6.55;5.88;;;;;;;14.54;84.82;101815.78;1048166;28;20053;-79
2021/06/11 02:09:29;;;;;;;6.35;5.75;;;;;;;14.55;84.82;101811.44;1044655;28;20128;-80
2021/06/11 02:10:03;;;;;;;7.30;6.60;;;;;;;14.55;84.50;101807.09;1044905;28;20048;-79
2021/06/11 02:10:35;;;;;;;7.60;6.55;;;;;;;14.63;84.06;101799.38;1048314;28;20049;-79
2021/06/11 02:11:06;;;;;;;7.07;6.38;;;;;;;14.70;83.46;101808.19;1050037;28;20060;-79
2021/06/11 02:11:41;;;;;;;6.93;6.32;;;;;;;14.69;83.28;101803.81;1056568;28;20411;-79
2021/06/11 02:12:13;;;;;;;13.00;7.38;;;;;;;14.72;83.77;101804.72;1052245;28;20514;-79
2021/06/11 02:12:46;;;;;;;6.03;5.43;;;;;;;14.74;84.00;101805.63;1049208;28;20055;-79
2021/06/11 02:13:18;;;;;;;6.35;5.75;;;;;;;14.75;83.79;101801.31;1052360;28;20048;-79
2021/06/11 02:13:52;;;;;;;7.05;6.35;;;;;;;14.71;84.18;101796.91;1048836;28;20095;-79
2021/06/11 02:14:23;;;;;;;6.35;5.72;;;;;;;14.69;84.04;101796.91;1049056;28;20051;-79
2021/06/11 02:14:56;;;;;;;6.78;5.95;;;;;;;14.70;83.05;101795.16;1048201;28;20052;-79
2021/06/11 02:15:28;;;;;;;6.38;5.82;;;;;;;14.73;83.33;101800.41;1049196;28;20394;-79
2021/06/11 02:16:02;;;;;;;7.60;6.90;;;;;;;14.69;83.62;101790.78;1052524;28;20488;-79
2021/06/11 02:16:33;;;;;;;7.10;6.38;;;;;;;14.66;84.00;101795.97;1056742;28;20051;-79
2021/06/11 02:17:07;;;;;;;6.72;6.13;;;;;;;14.74;83.37;101800.41;1052457;28;20103;-79
2021/06/11 02:17:42;;;;;;;7.53;6.78;;;;;;;14.80;83.48;101799.63;1053511;28;20122;-79
2021/06/11 02:18:15;;;;;;;7.70;7.00;;;;;;;14.88;83.60;101799.72;1056665;28;20047;-79
2021/06/11 02:18:47;;;;;;;6.53;5.88;;;;;;;14.85;82.99;101796.22;1056620;28;20427;-79
2021/06/11 02:19:21;;;;;;;7.70;7.00;;;;;;;14.79;83.43;101795.25;1052350;28;20048;-79
2021/06/11 02:19:53;;;;;;;7.97;7.28;;;;;;;14.83;83.28;101797.06;1048303;28;20127;-79
2021/06/11 02:20:26;;;;;;;7.97;7.15;;;;;;;14.83;83.43;101786.63;1049298;28;20052;-79
2021/06/11 02:20:58;;;;;;;9.40;8.40;;;;;;;14.91;82.82;101794.53;1052333;28;20055;-79
2021/06/11 02:21:30;;;;;;;11.35;10.15;;;;;;;14.91;83.85;101795.41;1052434;28;20048;-79
2021/06/11 02:22:05;;;;;;;9.73;8.75;;;;;;;14.92;83.88;101794.59;1054361;28;20095;-79
2021/06/11 02:22:38;;;;;;;9.07;8.20;;;;;;;14.85;83.91;101790.13;1056489;28;20052;-79
2021/06/11 02:23:10;;;;;;;9.15;8.13;;;;;;;14.82;83.76;101783.16;1052546;28;20423;-79
2021/06/11 02:23:42;;;;;;;9.55;8.48;;;;;;;14.85;84.30;101793.59;1048140;28;20050;-79
2021/06/11 02:24:13;;;;;;;11.93;10.27;;;;;;;14.88;85.47;101790.19;1044692;28;20060;-79
2021/06/11 02:24:45;;;;;;;13.27;11.13;;;;;;;14.89;84.57;101786.72;1048623;28;20063;-79
2021/06/11 02:25:19;;;;;;;10.57;9.15;;;;;;;14.81;84.66;101791.84;1053070;28;20055;-79
2021/06/11 02:25:50;;;;;;;10.50;9.30;;;;;;;14.78;85.01;101790.91;1052328;28;20048;-79
2021/06/11 02:26:23;;;;;;;9.88;8.40;;;;;;;14.85;84.53;101785.78;1049026;28;20053;-79
2021/06/11 02:26:54;;;;;;;10.85;9.75;;;;;;;14.89;84.61;101778.03;1052379;28;20052;-79
2021/06/11 02:27:26;;;;;;;11.10;10.05;;;;;;;14.87;84.82;101791.03;1048795;28;20059;-79
2021/06/11 02:27:58;;;;;;;9.85;8.93;;;;;;;14.92;84.40;101784.16;1048932;28;20059;-79
2021/06/11 02:28:29;;;;;;;12.63;10.73;;;;;;;14.89;84.19;101780.63;1052327;28;20044;-79
2021/06/11 02:29:01;;;;;;;12.05;10.85;;;;;;;14.91;84.29;101785.00;1053013;28;20059;-79
2021/06/11 02:29:35;;;;;;;13.57;12.27;;;;;;;14.83;85.26;101782.31;1053124;28;20048;-79
2021/06/11 02:30:09;;;;;;;14.63;13.13;;;;;;;14.87;84.77;101790.16;1052341;28;20048;-79
2021/06/11 02:30:40;;;;;;;13.15;11.85;;;;;;;14.87;85.20;101780.63;1048154;28;20048;-79
2021/06/11 02:31:12;;;;;;;13.38;10.02;;;;;;;14.90;84.50;101784.97;1049462;28;20107;-79
2021/06/11 02:31:45;;;;;;;11.50;10.30;;;;;;;14.83;84.24;101790.13;1049167;28;20049;-80
2021/06/11 02:32:16;;;;;;;12.93;10.98;;;;;;;14.88;84.14;101786.72;1051961;28;20079;-79
2021/06/11 02:32:49;;;;;;;10.77;9.52;;;;;;;14.91;83.81;101784.13;1048239;28;20488;-79
2021/06/11 02:33:20;;;;;;;11.20;10.10;;;;;;;14.83;84.46;101784.03;1048265;28;20049;-79
2021/06/11 02:33:52;;;;;;;11.65;9.73;;;;;;;14.80;83.93;101782.25;1045659;28;20052;-79